Time;durP1;ratioP1;P1;durP2;ratioP2;P2;SDS_P1;SDS_P2;PMS_P1;PMS_P2;Temp;Humidity;BMP_temperature;BMP_pressure;BME280_temperature;BME280_humidity;BME280_pressure;Samples;Min_cycle;Max_cycle;Signal;HPM_P1;HPM_P2
2023/06/10 00:00:41;;;;;;;14.25;10.57;;;21.70;99.90;;;;;;4953740;28;20119;-72
2023/06/10 00:03:08;;;;;;;14.57;10.13;;;21.60;99.90;;;;;;4954225;29;20114;-71
2023/06/10 00:05:35;;;;;;;13.60;10.32;;;21.60;99.90;;;;;;4953981;28;20052;-72
2023/06/10 00:08:07;;;;;;;14.05;9.95;;;21.50;99.90;;;;;;4953858;28;20032;-72
2023/06/10 00:10:35;;;;;;;13.10;9.77;;;21.40;99.90;;;;;;4953556;28;20035;-72
2023/06/10 00:13:01;;;;;;;15.32;10.10;;;21.40;99.90;;;;;;4953752;28;20023;-72
2023/06/10 00:15:26;;;;;;;11.80;9.43;;;21.40;99.90;;;;;;4953349;28;20030;-72
2023/06/10 00:17:52;;;;;;;14.65;10.20;;;21.30;99.90;;;;;;4953354;28;20027;-72
2023/06/10 00:20:18;;;;;;;13.38;9.95;;;21.30;99.90;;;;;;4953504;28;20019;-73
2023/06/10 00:22:45;;;;;;;13.93;9.95;;;21.30;99.90;;;;;;4953330;28;20034;-72
2023/06/10 00:25:11;;;;;;;15.35;9.50;;;21.20;99.90;;;;;;4953129;28;20554;-72
2023/06/10 00:27:36;;;;;;;12.57;9.65;;;21.20;99.90;;;;;;4953032;28;20028;-72
2023/06/10 00:30:06;;;;;;;13.80;9.45;;;21.20;99.90;;;;;;4953282;28;20378;-72
2023/06/10 00:32:35;;;;;;;14.23;9.50;;;21.10;99.90;;;;;;4953432;28;20023;-72
2023/06/10 00:35:02;;;;;;;12.80;9.57;;;21.10;99.90;;;;;;4952968;28;20034;-72
2023/06/10 00:37:28;;;;;;;15.10;9.32;;;21.10;99.90;;;;;;4952879;28;20027;-72
2023/06/10 00:39:54;;;;;;;11.63;8.70;;;21.00;99.90;;;;;;4953274;28;20153;-72
2023/06/10 00:42:20;;;;;;;15.55;9.65;;;21.00;99.90;;;;;;4952793;28;20295;-72
2023/06/10 00:44:46;;;;;;;13.27;9.38;;;21.00;99.90;;;;;;4952648;28;20419;-72
2023/06/10 00:47:12;;;;;;;12.90;9.45;;;21.00;99.90;;;;;;4953151;28;20015;-72
2023/06/10 00:49:39;;;;;;;12.35;9.18;;;20.90;99.90;;;;;;4952709;28;20098;-72
2023/06/10 00:52:06;;;;;;;17.75;9.50;;;20.90;99.90;;;;;;4952699;28;20451;-72
2023/06/10 00:54:33;;;;;;;14.23;9.65;;;20.80;99.90;;;;;;4950987;28;20016;-72
2023/06/10 00:57:01;;;;;;;15.88;9.55;;;20.80;99.90;;;;;;4952716;28;20538;-72
2023/06/10 00:59:31;;;;;;;13.55;9.07;;;20.70;99.90;;;;;;4951965;28;20443;-72
2023/06/10 01:01:57;;;;;;;15.13;9.27;;;20.70;99.90;;;;;;4952593;28;20487;-72
2023/06/10 01:04:24;;;;;;;14.25;8.70;;;20.60;99.90;;;;;;4952712;28;20106;-72
2023/06/10 01:07:05;;;;;;;15.07;8.88;;;20.60;99.90;;;;;;4953468;28;20176;-71
2023/06/10 01:09:45;;;;;;;12.18;8.70;;;20.60;99.90;;;;;;4943148;29;20023;-72
2023/06/10 01:12:31;;;;;;;11.50;8.73;;;20.50;99.90;;;;;;4939524;28;20541;-72
2023/06/10 01:14:59;;;;;;;15.77;8.50;;;20.50;99.90;;;;;;4952552;28;20410;-72
2023/06/10 01:17:27;;;;;;;16.15;8.95;;;20.50;99.90;;;;;;4952094;28;20023;-72
2023/06/10 01:19:56;;;;;;;12.20;8.13;;;20.40;99.90;;;;;;4953119;28;20441;-72
2023/06/10 01:22:32;;;;;;;11.43;8.50;;;20.40;99.90;;;;;;4948081;29;20031;-72
2023/06/10 01:24:58;;;;;;;12.00;8.25;;;20.40;99.90;;;;;;4952989;28;20086;-72
2023/06/10 01:27:32;;;;;;;11.00;8.18;;;20.30;99.90;;;;;;4952471;28;20098;-72
2023/06/10 01:30:15;;;;;;;13.77;8.50;;;20.30;99.90;;;;;;4952687;28;20457;-72
2023/06/10 01:32:45;;;;;;;11.95;8.40;;;20.30;99.90;;;;;;4952144;28;20059;-72
2023/06/10 01:35:11;;;;;;;14.73;8.10;;;20.20;99.90;;;;;;4952513;28;20039;-72
2023/06/10 01:37:40;;;;;;;13.60;8.27;;;20.20;99.90;;;;;;4952260;28;20448;-72
2023/06/10 01:40:07;;;;;;;12.13;7.90;;;20.20;99.90;;;;;;4952405;28;20019;-72
2023/06/10 01:42:33;;;;;;;13.60;8.43;;;20.20;99.90;;;;;;4952175;28;20039;-72
2023/06/10 01:44:59;;;;;;;13.40;8.10;;;20.10;99.90;;;;;;4952155;28;20023;-72
2023/06/10 01:47:25;;;;;;;11.95;8.20;;;20.10;99.90;;;;;;4952272;28;20027;-72
2023/06/10 01:49:50;;;;;;;11.95;7.93;;;20.10;99.90;;;;;;4952202;28;20378;-72
2023/06/10 01:52:16;;;;;;;10.75;7.53;;;20.00;99.90;;;;;;4952148;28;20098;-72
2023/06/10 01:54:42;;;;;;;12.30;8.27;;;20.00;99.90;;;;;;4951801;28;20030;-72
2023/06/10 01:57:07;;;;;;;11.02;7.65;;;20.00;99.90;;;;;;4952049;28;20031;-73
2023/06/10 01:59:33;;;;;;;12.52;7.93;;;20.00;99.90;;;;;;4951713;28;20031;-72
2023/06/10 02:01:59;;;;;;;10.68;7.10;;;19.90;99.90;;;;;;4952154;28;20019;-72
2023/06/10 02:04:24;;;;;;;11.23;7.78;;;19.90;99.90;;;;;;4951998;28;20083;-72
2023/06/10 02:06:50;;;;;;;10.50;7.20;;;19.90;99.90;;;;;;4952275;28;20031;-72
2023/06/10 02:09:18;;;;;;;15.23;8.10;;;19.80;99.90;;;;;;4952081;28;20379;-72
2023/06/10 02:11:43;;;;;;;12.63;7.57;;;19.80;99.90;;;;;;4954556;28;20023;-72
2023/06/10 02:14:09;;;;;;;10.90;7.20;;;19.80;99.90;;;;;;4956285;28;20394;-71
2023/06/10 02:16:34;;;;;;;10.65;6.93;;;19.70;99.90;;;;;;4956143;28;20027;-73
2023/06/10 02:19:00;;;;;;;11.02;7.53;;;19.70;99.90;;;;;;4955556;28;20120;-71
2023/06/10 02:21:26;;;;;;;10.82;7.97;;;19.70;99.90;;;;;;4956355;28;20162;-72
2023/06/10 02:23:52;;;;;;;13.98;7.43;;;19.70;99.90;;;;;;4955315;28;20062;-72
2023/06/10 02:26:18;;;;;;;14.40;7.50;;;19.70;99.90;;;;;;4955568;28;20024;-72
2023/06/10 02:28:44;;;;;;;13.13;7.70;;;19.60;99.90;;;;;;4953739;28;20101;-72
2023/06/10 02:31:09;;;;;;;12.13;7.45;;;19.60;99.90;;;;;;4954967;28;20023;-72
2023/06/10 02:33:35;;;;;;;10.10;7.38;;;19.50;99.90;;;;;;4955218;28;20031;-72
2023/06/10 02:36:00;;;;;;;10.85;6.78;;;19.50;99.90;;;;;;4955506;28;20394;-71
2023/06/10 02:38:26;;;;;;;11.52;7.28;;;19.50;99.90;;;;;;4951141;29;20466;-74
2023/06/10 02:40:52;;;;;;;12.93;7.45;;;19.50;99.90;;;;;;4955575;28;20023;-72
2023/06/10 02:43:17;;;;;;;11.88;7.03;;;19.40;99.90;;;;;;4955422;28;20027;-72
2023/06/10 02:45:43;;;;;;;13.13;7.00;;;19.40;99.90;;;;;;4955371;28;20350;-72
2023/06/10 02:48:08;;;;;;;10.25;7.40;;;19.40;99.90;;;;;;4955602;28;20026;-72
2023/06/10 02:50:34;;;;;;;13.00;7.10;;;19.30;99.90;;;;;;4954980;28;20031;-72
2023/06/10 02:53:00;;;;;;;14.38;7.10;;;19.30;99.90;;;;;;4955059;28;20194;-72
2023/06/10 02:55:26;;;;;;;13.75;6.63;;;19.30;99.90;;;;;;4953529;29;20130;-72
2023/06/10 02:57:54;;;;;;;12.23;7.10;;;19.30;99.90;;;;;;4954989;28;20102;-72
2023/06/10 03:00:21;;;;;;;13.88;7.63;;;19.30;99.90;;;;;;4954687;28;20027;-72
2023/06/10 03:02:46;;;;;;;14.48;6.38;;;19.30;99.90;;;;;;4955001;28;20047;-72
2023/06/10 03:05:13;;;;;;;11.38;7.03;;;19.20;99.90;;;;;;4954128;28;20053;-72
2023/06/10 03:07:38;;;;;;;14.27;6.93;;;19.20;99.90;;;;;;4954487;28;20054;-72
2023/06/10 03:10:05;;;;;;;10.65;6.93;;;19.20;99.90;;;;;;4954615;28;20054;-73
2023/06/10 03:12:31;;;;;;;11.20;6.85;;;19.10;99.90;;;;;;4950705;28;20077;-71
2023/06/10 03:14:57;;;;;;;14.65;6.90;;;19.10;99.90;;;;;;4954665;28;20543;-72
2023/06/10 03:17:22;;;;;;;13.57;7.47;;;19.10;99.90;;;;;;4954266;28;20051;-72
2023/06/10 03:19:48;;;;;;;14.13;7.18;;;19.10;99.90;;;;;;4952304;28;20034;-72
2023/06/10 03:22:15;;;;;;;11.15;7.15;;;19.00;99.90;;;;;;4951519;28;20023;-72
2023/06/10 03:24:43;;;;;;;12.02;7.18;;;19.00;99.90;;;;;;4954766;28;20035;-73
2023/06/10 03:27:13;;;;;;;11.43;6.38;;;19.00;99.90;;;;;;4955105;28;20386;-71
2023/06/10 03:29:39;;;;;;;11.00;7.18;;;18.90;99.90;;;;;;4953482;29;20027;-72
2023/06/10 03:32:05;;;;;;;12.77;7.25;;;18.90;99.90;;;;;;4958016;28;20032;-71
2023/06/10 03:34:30;;;;;;;11.07;6.63;;;18.90;99.90;;;;;;4958644;29;20382;-72
2023/06/10 03:36:57;;;;;;;14.20;6.95;;;18.90;99.90;;;;;;4959112;28;20023;-72
2023/06/10 03:39:25;;;;;;;16.20;7.32;;;18.90;99.90;;;;;;4955206;28;20074;-72
2023/06/10 03:41:51;;;;;;;14.48;7.15;;;18.80;99.90;;;;;;4954778;28;20027;-72
2023/06/10 03:44:17;;;;;;;13.73;7.05;;;18.80;99.90;;;;;;4954455;28;20027;-72
2023/06/10 03:46:42;;;;;;;12.35;6.90;;;18.80;99.90;;;;;;4954815;28;20053;-72
2023/06/10 03:49:09;;;;;;;11.27;6.85;;;18.80;99.90;;;;;;4954024;28;20023;-72
2023/06/10 03:51:35;;;;;;;13.35;7.20;;;18.80;99.90;;;;;;4954751;28;20136;-71
2023/06/10 03:54:01;;;;;;;13.27;6.90;;;18.80;99.90;;;;;;4954495;29;20063;-72
2023/06/10 03:56:26;;;;;;;13.07;6.60;;;18.80;99.90;;;;;;4954552;28;20490;-72
2023/06/10 03:58:52;;;;;;;14.00;7.03;;;18.70;99.90;;;;;;4954835;28;20070;-72
2023/06/10 04:01:20;;;;;;;14.48;6.72;;;18.70;99.90;;;;;;4953787;28;20081;-72
2023/06/10 04:03:48;;;;;;;11.50;6.93;;;18.70;99.90;;;;;;4953453;28;20027;-72
2023/06/10 04:06:15;;;;;;;11.25;7.28;;;18.70;99.90;;;;;;4954300;28;20375;-72
2023/06/10 04:08:41;;;;;;;10.75;6.57;;;18.70;99.90;;;;;;4953812;28;20090;-71
2023/06/10 04:11:06;;;;;;;12.20;6.70;;;18.70;99.90;;;;;;4953695;28;20054;-71
2023/06/10 04:13:32;;;;;;;11.60;6.97;;;18.70;99.90;;;;;;4953649;28;20023;-71
2023/06/10 04:15:58;;;;;;;12.63;7.00;;;18.60;99.90;;;;;;4948733;28;20034;-71
2023/06/10 04:18:23;;;;;;;14.63;7.03;;;18.60;99.90;;;;;;4953513;28;20027;-72
2023/06/10 04:20:49;;;;;;;14.35;7.70;;;18.60;99.90;;;;;;4953224;28;20023;-73
2023/06/10 04:23:14;;;;;;;13.70;6.95;;;18.60;99.90;;;;;;4953238;28;20030;-72
2023/06/10 04:25:40;;;;;;;14.70;7.38;;;18.70;99.90;;;;;;4953871;28;20027;-73
2023/06/10 04:28:06;;;;;;;10.57;6.32;;;18.70;99.90;;;;;;4953070;28;20031;-73
2023/06/10 04:30:31;;;;;;;12.90;7.03;;;18.60;99.90;;;;;;4952924;28;20029;-73
2023/06/10 04:32:57;;;;;;;11.95;6.82;;;18.60;99.90;;;;;;4952980;28;20027;-73
2023/06/10 04:35:23;;;;;;;10.25;7.13;;;18.60;99.90;;;;;;4953018;28;20106;-73
2023/06/10 04:37:48;;;;;;;12.77;6.53;;;18.60;99.90;;;;;;4953164;28;20103;-72
2023/06/10 04:40:15;;;;;;;14.50;6.63;;;18.70;99.90;;;;;;4953169;28;20379;-73
2023/06/10 04:42:41;;;;;;;11.02;6.57;;;18.70;99.90;;;;;;4953058;28;20106;-73
2023/06/10 04:45:08;;;;;;;15.90;7.22;;;18.70;99.90;;;;;;4953867;28;20467;-73
2023/06/10 04:47:33;;;;;;;14.55;7.20;;;18.70;99.90;;;;;;4952627;28;20439;-72
2023/06/10 04:50:00;;;;;;;15.85;7.88;;;18.70;99.90;;;;;;4953642;28;20118;-72
2023/06/10 04:52:26;;;;;;;11.15;7.18;;;18.80;99.90;;;;;;4953062;28;20035;-71
2023/06/10 04:54:53;;;;;;;14.35;7.50;;;18.80;99.90;;;;;;4953265;28;20035;-72
2023/06/10 04:57:20;;;;;;;11.40;6.60;;;18.80;99.90;;;;;;4953210;28;20526;-72
2023/06/10 04:59:46;;;;;;;13.63;6.88;;;18.80;99.90;;;;;;4953147;28;20081;-71
2023/06/10 05:02:12;;;;;;;13.88;6.63;;;18.90;99.90;;;;;;4950500;28;20874;-72
2023/06/10 05:04:37;;;;;;;10.23;6.75;;;18.90;99.90;;;;;;4952348;28;20058;-72
2023/06/10 05:07:03;;;;;;;11.38;6.88;;;18.90;99.90;;;;;;4952011;28;20023;-72
2023/06/10 05:09:29;;;;;;;13.30;7.32;;;19.00;99.90;;;;;;4953144;28;20075;-72
2023/06/10 05:11:55;;;;;;;16.38;7.72;;;19.00;99.90;;;;;;4952102;28;20059;-72
2023/06/10 05:14:21;;;;;;;10.85;7.18;;;19.00;99.90;;;;;;4952826;28;20058;-72
2023/06/10 05:16:50;;;;;;;13.65;7.28;;;19.00;99.90;;;;;;4952467;28;20249;-72
2023/06/10 05:19:19;;;;;;;12.95;7.63;;;19.00;99.90;;;;;;4946602;29;20035;-72
2023/06/10 05:21:45;;;;;;;14.00;7.07;;;19.10;99.90;;;;;;4952589;28;20042;-72
2023/06/10 05:24:10;;;;;;;12.95;7.50;;;19.10;99.90;;;;;;4953111;28;20047;-72
2023/06/10 05:26:37;;;;;;;13.35;7.22;;;19.10;99.90;;;;;;4952787;28;20031;-72
2023/06/10 05:29:04;;;;;;;15.82;7.55;;;19.10;99.90;;;;;;4952265;28;20035;-72
2023/06/10 05:31:30;;;;;;;12.20;7.03;;;19.20;99.90;;;;;;4952446;28;20031;-72
2023/06/10 05:33:55;;;;;;;14.73;7.70;;;19.20;99.90;;;;;;4952272;28;20036;-72
2023/06/10 05:36:21;;;;;;;13.07;6.88;;;19.30;99.90;;;;;;4952619;28;20027;-72
2023/06/10 05:38:47;;;;;;;11.68;7.15;;;19.30;99.90;;;;;;4952590;28;20026;-72
2023/06/10 05:41:13;;;;;;;14.20;7.32;;;19.40;99.90;;;;;;4952525;28;20027;-72
2023/06/10 05:43:38;;;;;;;12.38;7.35;;;19.50;99.90;;;;;;4952861;28;20110;-74
2023/06/10 05:46:04;;;;;;;12.70;7.47;;;19.50;99.90;;;;;;4954108;28;20023;-72
2023/06/10 05:48:30;;;;;;;11.38;7.03;;;19.60;99.90;;;;;;4956439;28;20023;-72
2023/06/10 05:50:55;;;;;;;14.98;8.25;;;19.60;99.90;;;;;;4954223;28;20110;-72
2023/06/10 05:53:21;;;;;;;15.13;8.07;;;19.60;99.90;;;;;;4950159;28;20027;-71
2023/06/10 05:55:47;;;;;;;16.00;7.70;;;19.70;99.90;;;;;;4956051;28;20435;-71
2023/06/10 05:58:13;;;;;;;12.68;8.23;;;19.80;99.90;;;;;;4956072;28;20011;-73
2023/06/10 06:00:40;;;;;;;15.75;8.02;;;19.80;99.90;;;;;;4956475;28;20034;-74
2023/06/10 06:03:09;;;;;;;11.68;7.80;;;19.90;99.90;;;;;;4956145;28;20039;-74
2023/06/10 06:05:36;;;;;;;16.42;7.72;;;20.00;99.90;;;;;;4956513;28;20122;-74
2023/06/10 06:08:02;;;;;;;16.67;8.20;;;20.00;99.90;;;;;;4957851;28;20458;-73
2023/06/10 06:10:27;;;;;;;15.48;7.72;;;20.10;99.90;;;;;;4958046;28;20085;-73
2023/06/10 06:12:53;;;;;;;18.00;8.10;;;20.20;99.90;;;;;;4957900;29;20414;-74
2023/06/10 06:15:19;;;;;;;14.20;7.90;;;20.30;99.90;;;;;;4951459;28;20028;-74
2023/06/10 06:17:44;;;;;;;13.30;8.35;;;20.40;99.90;;;;;;4954672;28;20027;-74
2023/06/10 06:20:10;;;;;;;15.60;8.52;;;20.40;99.90;;;;;;4951903;29;20066;-72
2023/06/10 06:22:36;;;;;;;13.63;7.78;;;20.50;99.90;;;;;;4957587;28;20039;-73
2023/06/10 06:25:02;;;;;;;12.02;7.72;;;20.60;99.90;;;;;;4956725;28;20023;-73
2023/06/10 06:27:28;;;;;;;13.48;7.93;;;20.70;99.90;;;;;;4957687;28;20020;-72
2023/06/10 06:29:53;;;;;;;10.45;7.43;;;20.80;99.90;;;;;;4956681;28;20030;-73
2023/06/10 06:32:19;;;;;;;15.85;8.02;;;20.90;99.90;;;;;;4956819;28;20360;-74
2023/06/10 06:34:45;;;;;;;9.43;7.03;;;21.00;99.90;;;;;;4953914;29;20032;-73
2023/06/10 06:37:10;;;;;;;12.85;7.70;;;21.10;99.90;;;;;;4956872;28;20035;-76
2023/06/10 06:39:36;;;;;;;14.23;7.53;;;21.20;99.90;;;;;;4957238;28;20031;-75
2023/06/10 06:42:02;;;;;;;12.38;7.90;;;21.30;99.90;;;;;;4956647;28;20600;-76
2023/06/10 06:44:29;;;;;;;12.90;7.80;;;21.40;99.90;;;;;;4954733;28;20487;-73
2023/06/10 06:46:54;;;;;;;12.80;7.40;;;21.50;99.90;;;;;;4956224;28;20042;-74
2023/06/10 06:49:20;;;;;;;12.15;7.80;;;21.60;99.60;;;;;;4956279;28;20031;-73
2023/06/10 06:51:46;;;;;;;17.60;8.00;;;21.70;99.10;;;;;;4955464;28;20398;-73
2023/06/10 06:54:11;;;;;;;12.05;7.88;;;21.80;98.90;;;;;;4955425;28;20390;-73
2023/06/10 06:56:38;;;;;;;14.90;7.90;;;21.90;98.50;;;;;;4948030;28;20390;-73
2023/06/10 06:59:04;;;;;;;10.07;7.47;;;22.10;98.00;;;;;;4954476;28;20019;-76
2023/06/10 07:01:30;;;;;;;17.08;7.93;;;22.20;97.90;;;;;;4955257;28;20026;-73
2023/06/10 07:03:55;;;;;;;13.07;7.68;;;22.30;97.50;;;;;;4954883;28;20057;-72
2023/06/10 07:06:21;;;;;;;14.77;7.65;;;22.50;97.00;;;;;;4954384;28;20106;-73
2023/06/10 07:08:47;;;;;;;11.07;7.22;;;22.60;96.60;;;;;;4956031;28;20038;-72
2023/06/10 07:11:12;;;;;;;12.68;7.80;;;22.70;96.30;;;;;;4955430;28;20382;-73
2023/06/10 07:13:38;;;;;;;12.63;7.25;;;22.80;96.00;;;;;;4956199;28;20042;-73
2023/06/10 07:16:03;;;;;;;12.23;7.30;;;23.00;95.60;;;;;;4956536;28;20023;-74
2023/06/10 07:18:29;;;;;;;14.63;7.38;;;23.10;95.20;;;;;;4956695;28;20015;-73
2023/06/10 07:20:55;;;;;;;11.25;7.60;;;23.20;94.70;;;;;;4956430;28;20029;-72
2023/06/10 07:23:20;;;;;;;12.43;7.75;;;23.30;94.20;;;;;;4956446;28;20042;-73
2023/06/10 07:25:46;;;;;;;11.40;7.18;;;23.50;94.00;;;;;;4956136;28;20110;-73
2023/06/10 07:28:13;;;;;;;14.38;7.18;;;23.60;93.60;;;;;;4955476;29;20034;-73
2023/06/10 07:30:38;;;;;;;12.10;6.68;;;23.80;93.40;;;;;;4956125;28;20031;-73
2023/06/10 07:33:07;;;;;;;14.30;6.95;;;24.00;92.90;;;;;;4957087;28;20118;-72
2023/06/10 07:35:34;;;;;;;11.15;6.55;;;24.20;92.30;;;;;;4955783;28;20451;-73
2023/06/10 07:37:59;;;;;;;13.45;6.50;;;24.40;91.50;;;;;;4956133;28;20055;-73
2023/06/10 07:40:25;;;;;;;12.00;6.80;;;24.50;90.80;;;;;;4956878;28;20047;-72
2023/06/10 07:42:52;;;;;;;11.80;6.68;;;24.70;90.00;;;;;;4956687;28;20031;-72
2023/06/10 07:45:18;;;;;;;10.98;6.22;;;24.80;88.90;;;;;;4956741;28;20363;-74
2023/06/10 07:47:44;;;;;;;10.90;6.85;;;25.00;88.00;;;;;;4956972;28;20031;-73
2023/06/10 07:50:09;;;;;;;10.52;6.88;;;25.20;86.00;;;;;;4953947;28;20385;-73
2023/06/10 07:52:35;;;;;;;10.07;6.65;;;25.30;84.80;;;;;;4955845;28;20027;-73
2023/06/10 07:55:01;;;;;;;14.25;6.55;;;25.40;83.70;;;;;;4950229;28;20027;-73
2023/06/10 07:57:26;;;;;;;14.45;6.70;;;25.60;82.70;;;;;;4952396;29;20058;-72
2023/06/10 07:59:52;;;;;;;8.38;6.22;;;25.70;82.00;;;;;;4956267;28;20026;-72
2023/06/10 08:02:18;;;;;;;11.85;6.35;;;25.80;81.60;;;;;;4956132;28;20099;-73
2023/06/10 08:04:43;;;;;;;11.70;6.32;;;26.00;81.30;;;;;;4955580;28;20487;-73
2023/06/10 08:07:09;;;;;;;11.30;6.68;;;26.20;80.60;;;;;;4954199;28;20486;-72
2023/06/10 08:09:34;;;;;;;10.10;6.55;;;26.40;79.70;;;;;;4954168;28;20038;-73
2023/06/10 08:12:00;;;;;;;8.55;6.32;;;26.50;78.80;;;;;;4955422;28;20121;-73
2023/06/10 08:14:26;;;;;;;11.60;6.65;;;26.70;77.90;;;;;;4954907;28;20385;-73
2023/06/10 08:16:51;;;;;;;10.93;6.70;;;26.80;76.50;;;;;;4956098;28;20027;-74
2023/06/10 08:19:17;;;;;;;10.65;6.72;;;26.90;75.90;;;;;;4954862;28;20023;-75
2023/06/10 08:21:43;;;;;;;12.15;6.20;;;27.00;74.80;;;;;;4954584;28;20058;-76
2023/06/10 08:24:09;;;;;;;11.70;6.80;;;27.10;74.30;;;;;;4955025;28;20043;-74
2023/06/10 08:26:35;;;;;;;18.77;6.97;;;27.20;74.00;;;;;;4956153;28;20043;-74
2023/06/10 08:29:01;;;;;;;11.32;6.78;;;27.30;73.70;;;;;;4956208;28;20426;-74
2023/06/10 08:31:26;;;;;;;10.07;6.35;;;27.40;72.00;;;;;;4954130;28;20074;-75
2023/06/10 08:33:52;;;;;;;9.65;6.00;;;27.50;71.20;;;;;;4950380;28;20040;-74
2023/06/10 08:36:18;;;;;;;9.50;6.40;;;27.70;70.80;;;;;;4954951;28;20030;-75
2023/06/10 08:38:43;;;;;;;15.40;7.13;;;27.80;69.90;;;;;;4954012;28;20458;-74
2023/06/10 08:41:13;;;;;;;10.23;6.80;;;28.00;69.00;;;;;;4954502;28;20023;-75
2023/06/10 08:44:20;;;;;;;13.40;6.93;;;28.10;68.10;;;;;;4954835;28;20142;-75
2023/06/10 08:46:47;;;;;;;13.35;6.60;;;28.30;66.40;;;;;;4952777;29;20035;-73
2023/06/10 08:49:20;;;;;;;9.98;6.55;;;28.30;66.70;;;;;;4953912;28;20114;-74
2023/06/10 08:51:54;;;;;;;8.73;6.18;;;28.40;66.50;;;;;;4953564;28;20027;-74
2023/06/10 08:54:29;;;;;;;9.57;6.80;;;28.50;65.80;;;;;;4954113;28;20065;-74
2023/06/10 08:56:57;;;;;;;9.95;6.68;;;28.70;64.70;;;;;;4954710;29;20364;-73
2023/06/10 08:59:24;;;;;;;12.95;6.43;;;28.70;63.70;;;;;;4954570;28;20031;-74
2023/06/10 09:01:51;;;;;;;16.02;6.72;;;28.90;62.90;;;;;;4954512;29;20038;-71
2023/06/10 09:04:18;;;;;;;10.55;6.55;;;29.00;62.20;;;;;;4954524;28;20066;-72
2023/06/10 09:06:44;;;;;;;11.27;6.43;;;29.20;62.10;;;;;;4953535;28;20440;-72
2023/06/10 09:09:11;;;;;;;13.20;6.40;;;29.40;61.70;;;;;;4952821;29;20023;-71
2023/06/10 09:11:38;;;;;;;9.98;6.50;;;29.40;60.90;;;;;;4953565;28;20035;-71
2023/06/10 09:14:03;;;;;;;9.73;6.70;;;29.60;60.40;;;;;;4953326;28;20430;-73
2023/06/10 09:16:29;;;;;;;8.10;6.07;;;29.60;59.50;;;;;;4953357;28;20023;-72
2023/06/10 09:18:55;;;;;;;10.20;6.22;;;29.70;59.00;;;;;;4953426;28;20086;-73
2023/06/10 09:21:24;;;;;;;10.43;5.75;;;29.80;58.30;;;;;;4952988;28;20027;-74
2023/06/10 09:23:51;;;;;;;8.20;6.32;;;29.80;58.40;;;;;;4952708;28;20059;-73
2023/06/10 09:26:17;;;;;;;10.38;6.43;;;29.90;58.30;;;;;;4952825;28;20467;-73
2023/06/10 09:28:49;;;;;;;12.95;6.53;;;30.00;58.30;;;;;;4952456;28;20035;-73
2023/06/10 09:31:18;;;;;;;9.27;6.07;;;30.10;57.40;;;;;;4952686;28;20050;-73
2023/06/10 09:33:44;;;;;;;10.57;6.38;;;30.10;57.30;;;;;;4953587;28;20474;-73
2023/06/10 09:36:11;;;;;;;7.90;5.88;;;30.20;57.60;;;;;;4941262;28;20074;-73
2023/06/10 09:38:37;;;;;;;11.38;6.03;;;30.30;56.40;;;;;;4953155;28;20374;-73
2023/06/10 09:41:03;;;;;;;10.73;5.70;;;30.40;55.70;;;;;;4953654;28;20031;-73
2023/06/10 09:43:46;;;;;;;12.43;6.78;;;30.40;55.60;;;;;;4952641;28;20666;-73
2023/06/10 09:46:18;;;;;;;9.10;6.20;;;30.50;55.10;;;;;;4953508;28;20035;-73
2023/06/10 09:48:45;;;;;;;13.68;6.35;;;30.60;55.20;;;;;;4953820;28;20083;-73
2023/06/10 09:51:13;;;;;;;10.35;6.53;;;30.70;55.40;;;;;;4954025;28;20058;-74
2023/06/10 09:53:38;;;;;;;13.18;6.85;;;30.90;55.40;;;;;;4953906;28;20031;-73
2023/06/10 09:56:05;;;;;;;8.18;6.55;;;31.10;55.00;;;;;;4953599;28;20074;-73
2023/06/10 09:58:38;;;;;;;9.85;5.93;;;31.20;54.10;;;;;;4954522;28;20027;-73
2023/06/10 10:01:10;;;;;;;10.43;6.22;;;31.20;53.60;;;;;;4953536;28;20018;-73
2023/06/10 10:03:52;;;;;;;7.80;6.00;;;31.10;53.30;;;;;;4954466;28;20015;-73
2023/06/10 10:06:19;;;;;;;12.60;6.28;;;31.10;53.30;;;;;;4954795;28;20074;-73
2023/06/10 10:08:47;;;;;;;12.40;6.18;;;31.20;53.30;;;;;;4955027;28;20043;-73
2023/06/10 10:11:14;;;;;;;9.88;5.90;;;31.30;53.50;;;;;;4953836;28;20032;-73
2023/06/10 10:13:40;;;;;;;10.55;6.60;;;31.40;52.60;;;;;;4953624;28;20030;-73
2023/06/10 10:16:17;;;;;;;8.82;6.53;;;31.40;52.20;;;;;;4953135;28;20035;-73
2023/06/10 10:18:51;;;;;;;15.07;6.68;;;31.20;51.70;;;;;;4952415;28;20041;-73
2023/06/10 10:21:22;;;;;;;12.63;6.47;;;31.10;51.70;;;;;;4949367;28;20039;-73
2023/06/10 10:24:04;;;;;;;12.52;6.05;;;31.10;51.60;;;;;;4950411;28;20213;-73
2023/06/10 10:26:32;;;;;;;10.98;6.30;;;31.20;51.60;;;;;;4949697;28;20027;-73
2023/06/10 10:29:00;;;;;;;9.07;6.32;;;31.20;51.80;;;;;;4952125;28;20122;-73
2023/06/10 10:31:29;;;;;;;10.75;6.38;;;31.30;51.80;;;;;;4951788;28;20024;-73
2023/06/10 10:33:59;;;;;;;9.63;6.32;;;31.40;51.80;;;;;;4955376;28;20035;-73
2023/06/10 10:36:26;;;;;;;10.18;6.18;;;31.50;52.20;;;;;;4955569;28;20102;-73
2023/06/10 10:38:51;;;;;;;12.60;6.90;;;31.70;51.90;;;;;;4955644;28;20534;-73
2023/06/10 10:41:19;;;;;;;12.35;6.57;;;31.70;52.40;;;;;;4955334;28;20106;-72
2023/06/10 10:43:46;;;;;;;13.73;7.00;;;31.80;52.40;;;;;;4956008;28;20039;-74
2023/06/10 10:46:15;;;;;;;13.02;7.10;;;31.90;52.30;;;;;;4956621;28;20027;-73
2023/06/10 10:48:41;;;;;;;12.52;6.72;;;31.90;52.30;;;;;;4956906;28;20091;-72
2023/06/10 10:51:08;;;;;;;9.73;6.90;;;31.90;51.90;;;;;;4955848;28;20443;-73
2023/06/10 10:53:34;;;;;;;15.20;6.45;;;32.00;51.70;;;;;;4955659;28;20023;-72
2023/06/10 10:56:04;;;;;;;11.38;6.85;;;32.10;52.10;;;;;;4956152;28;20568;-73
2023/06/10 10:58:30;;;;;;;11.73;6.70;;;32.10;52.10;;;;;;4956452;28;20027;-73
2023/06/10 11:00:56;;;;;;;13.40;6.82;;;32.10;51.90;;;;;;4956765;28;20485;-72
2023/06/10 11:03:21;;;;;;;14.10;6.88;;;32.10;52.40;;;;;;4956708;28;20077;-73
2023/06/10 11:05:48;;;;;;;12.40;6.90;;;32.10;52.10;;;;;;4956336;28;20043;-73
2023/06/10 11:08:32;;;;;;;13.60;6.75;;;32.10;51.90;;;;;;4956247;28;20031;-73
2023/06/10 11:10:58;;;;;;;11.13;7.35;;;32.10;51.70;;;;;;4954824;28;20091;-74
2023/06/10 11:13:26;;;;;;;13.52;6.78;;;32.20;51.70;;;;;;4954850;28;20449;-75
2023/06/10 11:15:56;;;;;;;9.55;6.90;;;32.30;52.50;;;;;;4955076;28;20117;-74
2023/06/10 11:18:41;;;;;;;12.00;6.63;;;32.40;51.80;;;;;;4954741;28;20023;-74
2023/06/10 11:21:07;;;;;;;8.10;6.43;;;32.50;51.70;;;;;;4950689;29;20024;-74
2023/06/10 11:23:34;;;;;;;9.80;6.55;;;32.70;50.80;;;;;;4955223;28;20078;-74
2023/06/10 11:26:34;;;;;;;11.60;6.40;;;32.80;49.70;;;;;;4955218;28;20015;-74
2023/06/10 11:28:59;;;;;;;9.05;6.80;;;32.90;48.40;;;;;;4956496;28;20043;-74
2023/06/10 11:31:33;;;;;;;13.13;6.82;;;32.90;48.70;;;;;;4956677;28;20334;-73
2023/06/10 11:34:04;;;;;;;12.90;7.18;;;33.00;48.80;;;;;;4956099;28;20041;-73
2023/06/10 11:36:31;;;;;;;7.80;6.80;;;33.00;48.90;;;;;;4955743;28;20454;-73
2023/06/10 11:38:59;;;;;;;12.82;6.70;;;33.10;49.40;;;;;;4954483;28;20405;-74
2023/06/10 11:41:28;;;;;;;9.27;6.28;;;33.20;49.40;;;;;;4954637;28;20074;-75
2023/06/10 11:43:58;;;;;;;11.13;6.38;;;33.30;48.90;;;;;;4954492;28;20077;-74
2023/06/10 11:46:28;;;;;;;8.75;6.57;;;33.50;48.00;;;;;;4954969;28;20027;-73
2023/06/10 11:48:58;;;;;;;11.65;6.55;;;33.50;47.10;;;;;;4954969;28;20410;-73
2023/06/10 11:51:28;;;;;;;8.70;6.30;;;33.50;46.40;;;;;;4954687;28;20023;-74
2023/06/10 11:53:55;;;;;;;8.85;6.40;;;33.60;45.20;;;;;;4954838;28;20038;-73
2023/06/10 11:56:28;;;;;;;6.88;5.90;;;33.50;44.90;;;;;;4954857;28;20028;-74
2023/06/10 11:58:57;;;;;;;10.48;5.95;;;33.30;44.80;;;;;;4954453;28;20114;-75
2023/06/10 12:01:25;;;;;;;8.52;6.05;;;33.30;45.20;;;;;;4954749;28;20522;-74
2023/06/10 12:04:07;;;;;;;10.23;6.05;;;33.40;44.90;;;;;;4955136;28;20047;-75
2023/06/10 12:06:43;;;;;;;10.20;6.18;;;33.40;44.30;;;;;;4955225;28;20066;-76
2023/06/10 12:09:15;;;;;;;8.75;6.07;;;33.50;44.30;;;;;;4945656;29;20027;-75
2023/06/10 12:11:42;;;;;;;9.07;6.03;;;33.60;44.10;;;;;;4955212;28;20030;-74
2023/06/10 12:14:07;;;;;;;10.88;6.10;;;33.60;44.20;;;;;;4946474;29;20023;-73
2023/06/10 12:16:33;;;;;;;8.68;5.97;;;33.70;44.10;;;;;;4955230;28;20624;-74
2023/06/10 12:19:04;;;;;;;11.18;6.30;;;33.70;44.20;;;;;;4953812;28;20070;-73
2023/06/10 12:21:30;;;;;;;8.30;6.65;;;33.80;44.30;;;;;;4953543;28;20050;-73
2023/06/10 12:24:09;;;;;;;12.35;6.85;;;33.80;44.10;;;;;;4953041;28;20078;-73
2023/06/10 12:26:47;;;;;;;10.48;6.20;;;33.90;44.00;;;;;;4953010;28;20479;-73
2023/06/10 12:29:17;;;;;;;10.07;6.20;;;33.90;43.10;;;;;;4952991;28;20028;-75
2023/06/10 12:32:00;;;;;;;10.27;6.38;;;33.80;43.20;;;;;;4953092;28;20019;-74
2023/06/10 12:34:39;;;;;;;9.70;5.97;;;33.90;42.80;;;;;;4953091;28;20019;-74
2023/06/10 12:37:13;;;;;;;11.90;6.47;;;34.00;43.90;;;;;;4953113;28;20075;-74
2023/06/10 12:39:40;;;;;;;8.55;6.00;;;34.00;42.60;;;;;;4952972;28;20114;-75